createdAt,value
2023-04-20T00:00:44.157Z,7.83
2023-04-20T00:03:29.493Z,7.62
2023-04-20T00:06:15.482Z,7.73
2023-04-20T00:09:01.806Z,7.63
2023-04-20T00:11:46.831Z,7.55
2023-04-20T00:14:32.021Z,7.56
2023-04-20T00:17:17.820Z,7.74
2023-04-20T00:20:03.743Z,7.72
2023-04-20T00:22:48.778Z,7.70
2023-04-20T00:25:37.112Z,7.72
2023-04-20T00:28:22.282Z,7.73
2023-04-20T00:31:07.358Z,7.71
2023-04-20T00:33:52.386Z,7.72
2023-04-20T00:36:37.302Z,7.72
2023-04-20T00:39:22.683Z,7.72
2023-04-20T00:42:08.998Z,7.67
2023-04-20T00:44:54.535Z,7.70
2023-04-20T00:47:39.881Z,7.66
2023-04-20T00:50:24.936Z,7.65
2023-04-20T00:53:11.301Z,7.57
2023-04-20T00:55:56.668Z,7.66
2023-04-20T00:58:43.664Z,7.59
2023-04-20T01:01:29.110Z,7.53
2023-04-20T01:04:14.437Z,7.47
2023-04-20T01:06:59.691Z,7.43
2023-04-20T01:09:44.650Z,7.45
2023-04-20T01:12:29.822Z,7.47
2023-04-20T01:15:14.853Z,7.37
2023-04-20T01:18:00.202Z,7.28
2023-04-20T01:20:47.133Z,7.28
2023-04-20T01:23:35.033Z,7.24
2023-04-20T01:26:20.934Z,7.17
2023-04-20T01:29:06.014Z,7.07
2023-04-20T01:31:51.614Z,7.06
2023-04-20T01:34:37.492Z,6.96
2023-04-20T01:37:22.491Z,7.06
2023-04-20T01:40:12.884Z,7.02
2023-04-20T01:42:57.969Z,6.96
2023-04-20T01:45:43.317Z,6.86
2023-04-20T01:48:28.662Z,6.73
2023-04-20T01:51:13.957Z,6.85
2023-04-20T01:53:59.824Z,6.82
2023-04-20T01:56:45.122Z,6.75
2023-04-20T01:59:30.068Z,6.76
2023-04-20T02:02:15.402Z,6.67
2023-04-20T02:05:01.038Z,6.68
2023-04-20T02:07:46.129Z,6.68
2023-04-20T02:10:31.247Z,6.74
2023-04-20T02:13:16.522Z,6.80
2023-04-20T02:16:01.896Z,6.87
2023-04-20T02:18:47.300Z,6.83
2023-04-20T02:21:32.623Z,6.76
2023-04-20T02:24:17.892Z,6.75
2023-04-20T02:27:03.525Z,6.76
2023-04-20T02:29:49.038Z,6.75
2023-04-20T02:32:35.163Z,6.72
2023-04-20T02:35:20.770Z,6.78
2023-04-20T02:38:06.076Z,6.78
2023-04-20T02:40:51.283Z,6.72
2023-04-20T02:43:36.579Z,6.67
2023-04-20T02:46:21.724Z,6.66
2023-04-20T02:49:07.154Z,6.57
2023-04-20T02:51:52.055Z,6.66
2023-04-20T02:54:36.945Z,6.60
2023-04-20T02:57:22.205Z,6.62
2023-04-20T03:00:08.910Z,6.55
2023-04-20T03:02:54.484Z,6.47
2023-04-20T03:05:40.225Z,6.54
2023-04-20T03:08:25.637Z,6.49
2023-04-20T03:11:10.878Z,6.46
2023-04-20T03:13:55.841Z,6.42
2023-04-20T03:16:41.553Z,6.44
2023-04-20T03:19:26.823Z,6.35
2023-04-20T03:22:12.036Z,6.33
2023-04-20T03:24:57.118Z,6.26
2023-04-20T03:27:42.239Z,6.21
2023-04-20T03:30:27.429Z,6.16
2023-04-20T03:33:12.628Z,6.12
2023-04-20T03:35:57.792Z,6.01
2023-04-20T03:38:43.162Z,6.08
2023-04-20T03:41:28.166Z,6.12
2023-04-20T03:44:14.087Z,6.08
2023-04-20T03:46:59.050Z,5.98
2023-04-20T03:49:44.188Z,6.01
2023-04-20T03:52:29.655Z,5.99
2023-04-20T03:55:14.674Z,6.00
2023-04-20T03:57:59.656Z,6.05
2023-04-20T04:00:44.739Z,6.03
2023-04-20T04:03:30.378Z,6.05
2023-04-20T04:06:15.636Z,6.04
2023-04-20T04:09:01.008Z,5.99
2023-04-20T04:11:46.147Z,5.90
2023-04-20T04:14:32.585Z,5.99
2023-04-20T04:17:18.015Z,5.94
2023-04-20T04:20:03.501Z,6.02
2023-04-20T04:22:48.705Z,5.96
2023-04-20T04:25:33.782Z,5.91
2023-04-20T04:28:19.209Z,5.96
2023-04-20T04:31:06.052Z,6.00
2023-04-20T04:33:51.507Z,5.89
2023-04-20T04:36:36.741Z,5.93
2023-04-20T04:39:21.822Z,5.86
2023-04-20T04:42:06.917Z,5.87
2023-04-20T04:44:53.673Z,5.93
2023-04-20T04:47:41.135Z,5.95
2023-04-20T04:50:26.346Z,6.00
2023-04-20T04:53:11.225Z,5.99
2023-04-20T04:55:56.368Z,5.93
2023-04-20T04:58:41.630Z,5.79
2023-04-20T05:01:26.496Z,5.91
2023-04-20T05:04:11.436Z,5.90
2023-04-20T05:06:56.873Z,5.82
2023-04-20T05:09:41.767Z,5.90
2023-04-20T05:12:26.670Z,5.89
2023-04-20T05:15:12.104Z,5.91
2023-04-20T05:17:57.790Z,5.91
2023-04-20T05:20:43.066Z,5.86
2023-04-20T05:23:28.254Z,5.93
2023-04-20T05:26:16.149Z,5.84
2023-04-20T05:29:01.692Z,5.82
2023-04-20T05:31:46.977Z,5.90
2023-04-20T05:34:32.090Z,5.91
2023-04-20T05:37:17.232Z,5.93
2023-04-20T05:40:02.444Z,5.87
2023-04-20T05:42:47.511Z,5.81
2023-04-20T05:45:34.372Z,5.70
2023-04-20T05:48:19.408Z,5.79
2023-04-20T05:51:04.523Z,5.79
2023-04-20T05:53:49.718Z,5.89
2023-04-20T05:56:34.725Z,6.00
2023-04-20T05:59:20.661Z,6.06
2023-04-20T06:02:06.236Z,6.03
2023-04-20T06:04:51.530Z,6.30
2023-04-20T06:07:37.470Z,6.41
2023-04-20T06:10:22.782Z,6.44
2023-04-20T06:13:07.968Z,6.55
2023-04-20T06:15:54.067Z,6.49
2023-04-20T06:18:39.534Z,6.72
2023-04-20T06:21:25.088Z,6.85
2023-04-20T06:24:09.948Z,6.93
2023-04-20T06:26:54.914Z,6.96
2023-04-20T06:29:40.171Z,7.15
2023-04-20T06:32:25.210Z,7.27
2023-04-20T06:35:10.551Z,7.35
2023-04-20T06:37:57.490Z,7.43
2023-04-20T06:40:42.580Z,7.53
2023-04-20T06:43:27.648Z,7.64
2023-04-20T06:46:12.899Z,7.73
2023-04-20T06:48:59.197Z,7.80
2023-04-20T06:51:44.445Z,7.89
2023-04-20T06:54:29.365Z,8.00
2023-04-20T06:57:14.359Z,8.00
2023-04-20T06:59:59.218Z,8.20
2023-04-20T07:02:45.857Z,8.27
2023-04-20T07:05:31.199Z,8.36
2023-04-20T07:08:17.032Z,8.44
2023-04-20T07:11:02.104Z,8.55
2023-04-20T07:13:46.947Z,8.68
2023-04-20T07:16:32.076Z,8.60
2023-04-20T07:19:17.725Z,8.80
2023-04-20T07:22:03.142Z,8.81
2023-04-20T07:24:48.308Z,9.00
2023-04-20T07:27:38.512Z,9.12
2023-04-20T07:30:23.311Z,9.14
2023-04-20T07:33:09.132Z,9.24
2023-04-20T07:35:54.360Z,9.37
2023-04-20T07:38:39.474Z,9.46
2023-04-20T07:41:24.465Z,9.44
2023-04-20T07:44:09.607Z,9.60
2023-04-20T07:46:55.540Z,9.59
2023-04-20T07:49:41.145Z,9.76
2023-04-20T07:52:26.545Z,9.74
2023-04-20T07:55:12.026Z,9.89
2023-04-20T07:57:57.861Z,9.90
2023-04-20T08:00:42.930Z,9.96
2023-04-20T08:03:28.987Z,10.01
2023-04-20T08:06:14.329Z,9.99
2023-04-20T08:08:59.292Z,10.22
2023-04-20T08:11:46.191Z,10.35
2023-04-20T08:14:31.653Z,10.36
2023-04-20T08:17:16.647Z,10.39
2023-04-20T08:20:02.300Z,10.45
2023-04-20T08:22:47.470Z,10.50
2023-04-20T08:25:32.612Z,10.62
2023-04-20T08:28:32.456Z,10.74
2023-04-20T08:31:18.913Z,10.77
2023-04-20T08:34:04.101Z,10.85
2023-04-20T08:36:49.318Z,11.04
2023-04-20T08:39:34.769Z,11.06
2023-04-20T08:42:20.077Z,10.93
2023-04-20T08:45:05.734Z,10.90
2023-04-20T08:47:51.115Z,10.81
2023-04-20T08:50:37.416Z,10.73
2023-04-20T08:53:22.764Z,10.73
2023-04-20T08:56:08.229Z,10.73
2023-04-20T08:58:53.476Z,10.71
2023-04-20T09:01:39.534Z,10.79
2023-04-20T09:04:29.473Z,11.01
2023-04-20T09:07:21.595Z,11.10
2023-04-20T09:10:07.064Z,11.26
2023-04-20T09:12:53.331Z,11.51
2023-04-20T09:15:38.497Z,11.69
2023-04-20T09:18:24.844Z,11.85
2023-04-20T09:21:10.475Z,11.74
2023-04-20T09:24:03.403Z,11.88
2023-04-20T09:26:48.639Z,12.05
2023-04-20T09:29:33.595Z,12.10
2023-04-20T09:32:26.112Z,12.17
2023-04-20T09:35:11.053Z,12.30
2023-04-20T09:37:56.429Z,12.42
2023-04-20T09:40:41.679Z,12.41
2023-04-20T09:43:28.175Z,12.41
2023-04-20T09:46:13.391Z,12.44
2023-04-20T09:49:03.515Z,12.50
2023-04-20T09:51:49.086Z,12.41
2023-04-20T09:54:36.874Z,12.34
2023-04-20T09:57:22.995Z,12.11
2023-04-20T10:00:12.462Z,12.26
2023-04-20T10:02:58.029Z,12.45
2023-04-20T10:05:43.211Z,12.41
2023-04-20T10:08:28.589Z,12.43
2023-04-20T10:11:48.935Z,12.62
2023-04-20T10:14:37.301Z,12.65
2023-04-20T10:17:30.604Z,12.82
2023-04-20T10:20:28.105Z,13.16
2023-04-20T10:23:18.385Z,12.93
2023-04-20T10:26:03.882Z,13.07
2023-04-20T10:28:49.360Z,12.96
2023-04-20T10:31:42.081Z,13.25
2023-04-20T10:34:35.355Z,13.64
2023-04-20T10:37:20.679Z,13.78
2023-04-20T10:40:08.095Z,13.68
2023-04-20T10:42:53.645Z,13.82
2023-04-20T10:45:40.167Z,13.85
2023-04-20T10:48:25.492Z,13.64
2023-04-20T10:51:10.812Z,13.36
2023-04-20T10:54:07.972Z,13.17
2023-04-20T10:56:54.535Z,13.17
2023-04-20T10:59:41.417Z,13.21
2023-04-20T11:02:28.244Z,13.51
2023-04-20T11:05:14.002Z,13.58
2023-04-20T11:08:01.192Z,13.40
2023-04-20T11:10:46.594Z,13.30
2023-04-20T11:13:32.886Z,13.27
2023-04-20T11:16:19.477Z,13.15
2023-04-20T11:19:05.833Z,13.16
2023-04-20T11:21:51.294Z,13.23
2023-04-20T11:24:37.465Z,13.30
2023-04-20T11:27:22.713Z,13.34
2023-04-20T11:30:09.809Z,13.43
2023-04-20T11:32:55.265Z,13.42
2023-04-20T11:35:42.285Z,13.41
2023-04-20T11:38:32.235Z,13.34
2023-04-20T11:41:17.825Z,13.48
2023-04-20T11:44:02.821Z,13.55
2023-04-20T11:46:53.253Z,13.58
2023-04-20T11:49:38.926Z,13.51
2023-04-20T11:52:24.142Z,13.87
2023-04-20T11:55:09.690Z,14.30
2023-04-20T11:57:54.578Z,14.68
2023-04-20T12:00:39.518Z,14.83
2023-04-20T12:03:24.817Z,14.82
2023-04-20T12:06:10.360Z,14.55
2023-04-20T12:08:56.421Z,14.77
2023-04-20T12:11:41.400Z,15.05
2023-04-20T12:14:27.195Z,15.12
2023-04-20T12:17:12.710Z,15.36
2023-04-20T12:19:58.001Z,15.38
2023-04-20T12:22:43.398Z,15.16
2023-04-20T12:25:28.512Z,14.85
2023-04-20T12:28:14.307Z,15.35
2023-04-20T12:30:59.514Z,15.50
2023-04-20T12:33:44.900Z,15.84
2023-04-20T12:36:30.409Z,15.75
2023-04-20T12:39:16.000Z,15.90
2023-04-20T12:42:02.363Z,15.96
2023-04-20T12:44:47.360Z,15.97
2023-04-20T12:47:32.371Z,15.95
2023-04-20T12:50:17.638Z,15.91
2023-04-20T12:53:02.933Z,16.11
2023-04-20T12:55:49.535Z,16.28
2023-04-20T12:58:38.434Z,16.38
2023-04-20T13:01:23.340Z,16.32
2023-04-20T13:04:09.116Z,16.69
2023-04-20T13:06:54.205Z,16.79
2023-04-20T13:09:39.387Z,16.61
2023-04-20T13:12:24.662Z,16.46
2023-04-20T13:15:09.945Z,16.49
2023-04-20T13:17:55.312Z,16.52
2023-04-20T13:20:40.724Z,16.82
2023-04-20T13:23:26.081Z,16.77
2023-04-20T13:26:11.565Z,16.86
2023-04-20T13:28:58.352Z,16.66
2023-04-20T13:31:43.626Z,16.50
2023-04-20T13:34:28.848Z,16.63
2023-04-20T13:37:14.115Z,16.76
2023-04-20T13:40:00.100Z,17.35
2023-04-20T13:42:45.188Z,17.71
2023-04-20T13:45:30.684Z,17.61
2023-04-20T13:48:16.104Z,17.29
2023-04-20T13:51:01.351Z,17.66
2023-04-20T13:53:48.420Z,18.02
2023-04-20T13:56:34.455Z,18.06
2023-04-20T13:59:19.726Z,18.17
2023-04-20T14:02:04.742Z,18.30
2023-04-20T14:04:50.020Z,17.89
2023-04-20T14:07:35.578Z,16.81
2023-04-20T14:10:20.876Z,17.08
2023-04-20T14:13:07.136Z,16.85
2023-04-20T14:15:53.984Z,16.54
2023-04-20T14:18:39.342Z,16.23
2023-04-20T14:21:24.694Z,16.09
2023-04-20T14:24:13.784Z,16.29
2023-04-20T14:26:59.869Z,16.27
2023-04-20T14:29:45.235Z,16.93
2023-04-20T14:32:31.331Z,17.12
2023-04-20T14:35:16.806Z,16.17
2023-04-20T14:38:02.077Z,15.75
2023-04-20T14:40:48.308Z,15.21
2023-04-20T14:43:34.495Z,14.84
2023-04-20T14:46:19.770Z,14.46
2023-04-20T14:49:05.379Z,14.29
2023-04-20T14:51:50.973Z,14.05
2023-04-20T14:54:36.058Z,13.68
2023-04-20T14:57:21.704Z,13.43
2023-04-20T15:00:07.393Z,13.23
2023-04-20T15:02:53.499Z,13.02
2023-04-20T15:05:39.685Z,12.79
2023-04-20T15:08:25.020Z,12.60
2023-04-20T15:11:10.179Z,12.30
2023-04-20T15:13:55.479Z,12.23
2023-04-20T15:16:40.892Z,12.05
2023-04-20T15:19:26.214Z,11.71
2023-04-20T15:22:14.712Z,11.68
2023-04-20T15:24:59.749Z,11.51
2023-04-20T15:27:44.701Z,11.26
2023-04-20T15:30:30.646Z,11.06
2023-04-20T15:33:15.960Z,10.91
2023-04-20T15:36:00.869Z,10.93
2023-04-20T15:38:46.287Z,10.80
2023-04-20T15:41:31.178Z,10.57
2023-04-20T15:44:17.062Z,10.42
2023-04-20T15:47:03.378Z,10.43
2023-04-20T15:49:48.181Z,10.32
2023-04-20T15:52:33.431Z,10.14
2023-04-20T15:55:18.614Z,10.10
2023-04-20T15:58:03.791Z,9.99
2023-04-20T16:00:48.684Z,10.01
2023-04-20T16:03:33.861Z,10.05
2023-04-20T16:06:19.228Z,9.83
2023-04-20T16:09:04.342Z,9.64
2023-04-20T16:11:49.679Z,9.58
2023-04-20T16:14:34.920Z,9.41
2023-04-20T16:17:20.027Z,9.43
2023-04-20T16:20:06.021Z,9.27
2023-04-20T16:22:51.365Z,9.28
2023-04-20T16:25:38.334Z,9.22
2023-04-20T16:28:23.625Z,9.11
2023-04-20T16:31:08.634Z,9.15
2023-04-20T16:33:54.052Z,9.08
2023-04-20T16:36:39.048Z,9.15
2023-04-20T16:39:23.959Z,9.11
2023-04-20T16:42:09.214Z,9.13
2023-04-20T16:44:55.688Z,9.01
2023-04-20T16:47:40.771Z,9.13
2023-04-20T16:50:26.137Z,8.94
2023-04-20T16:53:11.414Z,8.95
2023-04-20T16:55:56.548Z,8.88
2023-04-20T16:58:41.946Z,8.65
2023-04-20T17:01:27.410Z,8.77
2023-04-20T17:04:13.400Z,8.70
2023-04-20T17:06:58.549Z,8.72
2023-04-20T17:09:43.565Z,8.72
2023-04-20T17:12:29.310Z,8.78
2023-04-20T17:15:14.582Z,8.75
2023-04-20T17:17:59.707Z,8.82
2023-04-20T17:20:45.988Z,8.79
2023-04-20T17:23:34.108Z,8.78
2023-04-20T17:26:19.106Z,8.82
2023-04-20T17:29:04.724Z,8.97
2023-04-20T17:31:50.249Z,8.90
2023-04-20T17:34:35.861Z,8.81
2023-04-20T17:37:22.217Z,8.76
2023-04-20T17:40:08.388Z,8.78
2023-04-20T17:42:53.248Z,8.87
2023-04-20T17:45:38.300Z,8.88
2023-04-20T17:48:23.255Z,8.92
2023-04-20T17:51:08.524Z,8.78
2023-04-20T17:53:53.520Z,8.81
2023-04-20T17:56:38.447Z,8.64
2023-04-20T17:59:23.429Z,8.62
2023-04-20T18:02:09.232Z,8.62
2023-04-20T18:04:57.489Z,8.59
2023-04-20T18:07:42.781Z,8.51
2023-04-20T18:10:28.022Z,8.51
2023-04-20T18:13:13.267Z,8.51
2023-04-20T18:15:59.683Z,8.49
2023-04-20T18:18:44.779Z,8.43
2023-04-20T18:21:30.153Z,8.55
2023-04-20T18:24:15.368Z,8.51
2023-04-20T18:27:01.239Z,8.50
2023-04-20T18:29:46.405Z,8.59
2023-04-20T18:32:32.910Z,9.49
2023-04-20T18:35:19.331Z,8.92
2023-04-20T18:38:05.933Z,8.70
2023-04-20T18:40:51.136Z,8.51
2023-04-20T18:43:36.088Z,8.53
2023-04-20T18:46:20.923Z,8.53
2023-04-20T18:49:06.238Z,8.43
2023-04-20T18:51:51.465Z,8.54
2023-04-20T18:54:38.317Z,8.46
2023-04-20T18:57:26.193Z,8.36
2023-04-20T19:00:11.752Z,8.38
2023-04-20T19:02:57.221Z,8.38
2023-04-20T19:05:42.232Z,8.38
2023-04-20T19:08:27.550Z,8.41
2023-04-20T19:11:12.520Z,8.48
2023-04-20T19:13:57.455Z,8.28
2023-04-20T19:16:42.730Z,8.45
2023-04-20T19:19:28.169Z,8.41
2023-04-20T19:22:13.280Z,8.41
2023-04-20T19:24:58.495Z,8.25
2023-04-20T19:27:43.760Z,8.24
2023-04-20T19:30:29.244Z,8.20
2023-04-20T19:33:14.538Z,8.22
2023-04-20T19:36:00.659Z,8.21
2023-04-20T19:38:45.793Z,8.15
2023-04-20T19:41:30.975Z,8.09
2023-04-20T19:44:16.306Z,7.99
2023-04-20T19:47:01.579Z,8.04
2023-04-20T19:49:46.769Z,7.89
2023-04-20T19:52:34.268Z,7.88
2023-04-20T19:55:19.266Z,7.93
2023-04-20T19:58:09.130Z,7.88
2023-04-20T20:00:54.412Z,7.84
2023-04-20T20:03:40.165Z,7.81
2023-04-20T20:06:26.881Z,7.81
2023-04-20T20:09:12.104Z,7.67
2023-04-20T20:11:57.467Z,7.84
2023-04-20T20:14:42.698Z,7.90
2023-04-20T20:17:27.919Z,7.92
2023-04-20T20:20:15.243Z,7.96
2023-04-20T20:23:00.665Z,7.97
2023-04-20T20:25:46.136Z,8.04
2023-04-20T20:28:31.339Z,8.03
2023-04-20T20:31:16.733Z,8.10
2023-04-20T20:34:01.741Z,8.05
2023-04-20T20:36:48.170Z,8.10
2023-04-20T20:39:33.234Z,8.11
2023-04-20T20:42:19.180Z,8.13
2023-04-20T20:45:12.475Z,8.02
2023-04-20T20:47:57.784Z,8.03
2023-04-20T20:50:43.101Z,8.01
2023-04-20T20:53:28.388Z,8.05
2023-04-20T20:56:13.751Z,8.10
2023-04-20T20:58:58.600Z,8.03
2023-04-20T21:01:43.670Z,8.05
2023-04-20T21:04:29.917Z,8.01
2023-04-20T21:07:14.994Z,7.99
2023-04-20T21:10:00.341Z,7.99
2023-04-20T21:12:45.203Z,7.93
2023-04-20T21:15:30.284Z,7.90
2023-04-20T21:18:15.454Z,7.99
2023-04-20T21:21:00.756Z,7.90
2023-04-20T21:23:45.824Z,7.95
2023-04-20T21:26:35.638Z,7.98
2023-04-20T21:29:21.045Z,7.98
2023-04-20T21:32:06.121Z,8.00
2023-04-20T21:34:52.068Z,7.97
2023-04-20T21:37:37.645Z,7.87
2023-04-20T21:40:25.118Z,7.99
2023-04-20T21:43:10.711Z,8.00
2023-04-20T21:45:55.880Z,8.00
2023-04-20T21:48:41.044Z,7.90
2023-04-20T21:51:25.999Z,7.95
2023-04-20T21:54:11.914Z,7.91
2023-04-20T21:56:57.043Z,7.90
2023-04-20T21:59:42.326Z,7.89
2023-04-20T22:02:27.362Z,7.88
2023-04-20T22:05:12.805Z,7.85
2023-04-20T22:07:58.109Z,7.93
2023-04-20T22:10:43.369Z,7.93
2023-04-20T22:13:28.308Z,7.91
2023-04-20T22:16:13.979Z,7.91
2023-04-20T22:18:58.851Z,7.93
2023-04-20T22:21:43.749Z,7.94
2023-04-20T22:24:28.834Z,7.97
2023-04-20T22:27:13.809Z,7.85
2023-04-20T22:29:59.134Z,7.88
2023-04-20T22:32:44.378Z,7.86
2023-04-20T22:35:30.071Z,7.90
2023-04-20T22:38:15.356Z,7.95
2023-04-20T22:41:00.279Z,7.96
2023-04-20T22:43:45.511Z,7.98
2023-04-20T22:46:30.818Z,7.94
2023-04-20T22:49:15.984Z,7.90
2023-04-20T22:52:01.427Z,7.72
2023-04-20T22:54:48.250Z,7.83
2023-04-20T22:57:33.481Z,7.89
2023-04-20T23:00:18.600Z,7.88
2023-04-20T23:03:04.187Z,7.93
2023-04-20T23:05:49.354Z,7.96
2023-04-20T23:08:34.524Z,7.98
2023-04-20T23:11:20.706Z,7.91
2023-04-20T23:14:06.582Z,8.00
2023-04-20T23:16:51.781Z,7.98
2023-04-20T23:19:38.405Z,8.03
2023-04-20T23:22:23.529Z,8.10
2023-04-20T23:25:09.894Z,8.12
2023-04-20T23:27:54.873Z,8.02
2023-04-20T23:30:39.832Z,8.02
2023-04-20T23:33:24.994Z,8.10
2023-04-20T23:36:11.929Z,8.11
2023-04-20T23:38:56.996Z,8.14
2023-04-20T23:41:41.936Z,8.05
2023-04-20T23:44:26.919Z,7.85
2023-04-20T23:47:11.785Z,7.95
2023-04-20T23:49:56.811Z,7.89
2023-04-20T23:52:41.723Z,7.73
2023-04-20T23:55:26.910Z,7.89
2023-04-20T23:58:12.127Z,7.86
